createdAt,value
2018-03-04T00:01:36.436Z,72.70
2018-03-04T00:04:04.618Z,72.80
2018-03-04T00:06:32.895Z,72.70
2018-03-04T00:09:00.952Z,72.70
2018-03-04T00:11:29.854Z,72.70
2018-03-04T00:13:57.811Z,72.70
2018-03-04T00:16:25.991Z,72.70
2018-03-04T00:18:55.809Z,72.60
2018-03-04T00:21:23.975Z,72.70
2018-03-04T00:23:52.147Z,72.70
2018-03-04T00:26:20.219Z,72.60
2018-03-04T00:28:48.748Z,72.70
2018-03-04T00:31:16.870Z,72.60
2018-03-04T00:33:44.946Z,72.60
2018-03-04T00:36:13.116Z,72.60
2018-03-04T00:38:41.290Z,72.40
2018-03-04T00:41:09.359Z,72.40
2018-03-04T00:43:37.429Z,72.50
2018-03-04T00:46:05.501Z,72.40
2018-03-04T00:48:33.686Z,72.50
2018-03-04T00:51:01.852Z,72.50
2018-03-04T00:53:29.917Z,72.60
2018-03-04T00:55:57.989Z,72.60
2018-03-04T00:58:26.170Z,72.60
2018-03-04T01:00:54.336Z,72.60
2018-03-04T01:03:22.512Z,72.60
2018-03-04T01:05:50.694Z,72.60
2018-03-04T01:08:18.870Z,72.60
2018-03-04T01:10:46.927Z,72.60
2018-03-04T01:13:15.111Z,72.50
2018-03-04T01:15:43.855Z,72.60
2018-03-04T01:18:11.960Z,72.60
2018-03-04T01:20:40.043Z,72.50
2018-03-04T01:23:08.934Z,72.60
2018-03-04T01:25:37.209Z,72.50
2018-03-04T01:28:05.374Z,72.50
2018-03-04T01:30:33.444Z,72.40
2018-03-04T01:33:01.620Z,72.50
2018-03-04T01:35:29.800Z,72.50
2018-03-04T01:37:57.967Z,72.50
2018-03-04T01:40:26.032Z,72.50
2018-03-04T01:42:54.153Z,72.50
2018-03-04T01:45:22.288Z,72.50
2018-03-04T01:47:50.352Z,72.60
2018-03-04T01:50:18.534Z,72.60
2018-03-04T01:52:46.698Z,72.50
2018-03-04T01:55:14.765Z,72.60
2018-03-04T01:57:42.839Z,72.50
2018-03-04T02:00:11.010Z,72.60
2018-03-04T02:02:39.194Z,72.60
2018-03-04T02:05:07.368Z,72.50
2018-03-04T02:07:35.428Z,72.50
2018-03-04T02:10:03.604Z,72.50
2018-03-04T02:12:31.787Z,72.50
2018-03-04T02:15:01.792Z,72.60
2018-03-04T02:17:30.489Z,72.60
2018-03-04T02:19:58.445Z,72.50
2018-03-04T02:22:26.528Z,72.50
2018-03-04T02:24:55.315Z,72.50
2018-03-04T02:27:23.375Z,72.60
2018-03-04T02:29:51.562Z,72.50
2018-03-04T02:32:19.737Z,72.60
2018-03-04T02:34:47.901Z,72.50
2018-03-04T02:37:15.783Z,72.50
2018-03-04T02:39:44.664Z,72.50
2018-03-04T02:42:12.727Z,72.50
2018-03-04T02:44:40.908Z,73.20
2018-03-04T02:47:09.082Z,72.40
2018-03-04T02:49:37.246Z,72.40
2018-03-04T02:52:05.327Z,72.50
2018-03-04T02:54:34.922Z,72.50
2018-03-04T02:57:03.927Z,72.40
2018-03-04T02:59:31.992Z,72.40
2018-03-04T03:02:00.779Z,72.50
2018-03-04T03:04:28.959Z,72.50
2018-03-04T03:06:57.119Z,72.50
2018-03-04T03:09:26.220Z,72.50
2018-03-04T03:11:54.400Z,72.50
2018-03-04T03:14:22.677Z,72.40
2018-03-04T03:16:50.848Z,72.40
2018-03-04T03:19:19.018Z,72.50
2018-03-04T03:21:47.187Z,72.40
2018-03-04T03:24:15.363Z,72.50
2018-03-04T03:26:43.326Z,72.50
2018-03-04T03:29:11.401Z,72.50
2018-03-04T03:31:39.577Z,72.30
2018-03-04T03:34:07.539Z,72.40
2018-03-04T03:36:35.615Z,72.40
2018-03-04T03:39:03.891Z,72.30
2018-03-04T03:41:32.063Z,72.40
2018-03-04T03:44:00.130Z,72.40
2018-03-04T03:46:28.315Z,72.40
2018-03-04T03:48:57.001Z,72.40
2018-03-04T03:51:25.675Z,72.50
2018-03-04T03:53:53.758Z,72.60
2018-03-04T03:56:22.536Z,72.80
2018-03-04T03:58:50.604Z,72.90
2018-03-04T04:01:18.688Z,72.90
2018-03-04T04:03:46.853Z,72.90
2018-03-04T04:06:14.924Z,72.90
2018-03-04T04:08:43.102Z,72.80
2018-03-04T04:11:11.267Z,72.90
2018-03-04T04:13:39.440Z,72.90
2018-03-04T04:16:07.514Z,72.90
2018-03-04T04:18:35.600Z,72.90
2018-03-04T04:21:05.298Z,72.80
2018-03-04T04:23:33.477Z,72.80
2018-03-04T04:26:01.650Z,72.80
2018-03-04T04:28:29.817Z,72.70
2018-03-04T04:30:57.986Z,73.50
2018-03-04T04:33:32.525Z,73.40
2018-03-04T04:36:01.298Z,72.80
2018-03-04T04:38:29.266Z,72.80
2018-03-04T04:40:57.440Z,72.70
2018-03-04T04:43:25.616Z,72.80
2018-03-04T04:45:53.800Z,72.80
2018-03-04T04:48:21.753Z,72.70
2018-03-04T04:50:49.932Z,72.80
2018-03-04T04:53:18.010Z,72.70
2018-03-04T04:55:46.591Z,72.70
2018-03-04T04:58:14.765Z,72.70
2018-03-04T05:00:43.041Z,72.80
2018-03-04T05:03:11.204Z,72.70
2018-03-04T05:05:39.274Z,72.80
2018-03-04T05:08:07.359Z,72.80
2018-03-04T05:10:35.585Z,72.80
2018-03-04T05:13:04.512Z,72.70
2018-03-04T05:15:32.685Z,72.70
2018-03-04T05:18:00.860Z,72.70
2018-03-04T05:20:30.055Z,72.80
2018-03-04T05:23:01.006Z,72.80
2018-03-04T05:25:28.962Z,72.80
2018-03-04T05:27:56.930Z,72.90
2018-03-04T05:30:25.107Z,73.00
2018-03-04T05:32:53.098Z,73.00
2018-03-04T05:35:21.361Z,73.00
2018-03-04T05:37:49.637Z,72.90
2018-03-04T05:40:17.798Z,72.80
2018-03-04T05:42:45.984Z,72.90
2018-03-04T05:45:14.967Z,72.90
2018-03-04T05:47:43.755Z,73.00
2018-03-04T05:50:11.828Z,72.90
2018-03-04T05:52:39.998Z,72.90
2018-03-04T05:55:08.071Z,72.90
2018-03-04T05:57:36.138Z,72.80
2018-03-04T06:00:04.119Z,72.70
2018-03-04T06:02:32.179Z,72.70
2018-03-04T06:05:00.357Z,72.60
2018-03-04T06:07:28.536Z,72.50
2018-03-04T06:09:56.709Z,72.40
2018-03-04T06:12:24.984Z,72.40
2018-03-04T06:14:53.148Z,72.40
2018-03-04T06:17:21.218Z,72.50
2018-03-04T06:19:49.292Z,72.40
2018-03-04T06:22:17.462Z,72.40
2018-03-04T06:24:45.760Z,72.50
2018-03-04T06:27:13.877Z,72.40
2018-03-04T06:29:41.884Z,72.50
2018-03-04T06:32:10.066Z,72.50
2018-03-04T06:34:38.229Z,72.50
2018-03-04T06:37:06.412Z,72.50
2018-03-04T06:39:35.500Z,72.40
2018-03-04T06:42:03.567Z,72.30
2018-03-04T06:44:31.843Z,72.30
2018-03-04T06:47:01.044Z,72.30
2018-03-04T06:49:29.214Z,72.30
2018-03-04T06:51:57.501Z,72.10
2018-03-04T06:54:25.449Z,72.00
2018-03-04T06:56:53.540Z,71.90
2018-03-04T06:59:21.809Z,71.90
2018-03-04T07:01:50.709Z,72.00
2018-03-04T07:04:18.766Z,72.00
2018-03-04T07:06:47.452Z,72.10
2018-03-04T07:09:15.624Z,72.10
2018-03-04T07:11:43.804Z,72.10
2018-03-04T07:14:11.984Z,71.90
2018-03-04T07:16:40.148Z,71.80
2018-03-04T07:19:08.434Z,71.70
2018-03-04T07:21:36.420Z,71.70
2018-03-04T07:24:05.287Z,71.60
2018-03-04T07:26:34.185Z,71.60
2018-03-04T07:29:02.358Z,71.70
2018-03-04T07:31:30.630Z,71.80
2018-03-04T07:33:59.410Z,71.70
2018-03-04T07:36:27.479Z,71.80
2018-03-04T07:38:58.327Z,71.90
2018-03-04T07:41:26.602Z,72.00
2018-03-04T07:43:54.776Z,71.80
2018-03-04T07:46:22.940Z,71.80
2018-03-04T07:48:51.122Z,72.20
2018-03-04T07:51:19.397Z,71.60
2018-03-04T07:53:48.276Z,71.90
2018-03-04T07:56:16.452Z,71.90
2018-03-04T07:58:44.521Z,71.90
2018-03-04T08:01:12.696Z,72.00
2018-03-04T08:03:40.765Z,71.80
2018-03-04T08:06:08.941Z,71.80
2018-03-04T08:08:37.624Z,71.80
2018-03-04T08:11:05.700Z,71.60
2018-03-04T08:13:34.392Z,71.40
2018-03-04T08:16:02.452Z,71.50
2018-03-04T08:18:30.572Z,71.60
2018-03-04T08:20:59.436Z,71.60
2018-03-04T08:23:28.315Z,71.60
2018-03-04T08:25:56.476Z,71.60
2018-03-04T08:28:32.499Z,71.60
2018-03-04T08:31:01.079Z,71.70
2018-03-04T08:33:29.200Z,71.60
2018-03-04T08:35:57.367Z,71.60
2018-03-04T08:38:25.433Z,71.70
2018-03-04T08:40:53.402Z,71.50
2018-03-04T08:43:21.484Z,71.50
2018-03-04T08:45:49.649Z,71.30
2018-03-04T08:48:17.717Z,71.10
2018-03-04T08:50:46.009Z,71.30
2018-03-04T08:53:14.179Z,71.40
2018-03-04T08:55:42.067Z,71.30
2018-03-04T08:58:10.935Z,71.10
2018-03-04T09:00:38.994Z,71.10
2018-03-04T09:03:07.178Z,71.20
2018-03-04T09:05:35.341Z,71.20
2018-03-04T09:08:03.391Z,71.50
2018-03-04T09:10:31.483Z,71.50
2018-03-04T09:13:00.171Z,71.60
2018-03-04T09:15:29.061Z,71.70
2018-03-04T09:17:57.231Z,71.60
2018-03-04T09:20:25.202Z,71.60
2018-03-04T09:22:54.105Z,71.40
2018-03-04T09:25:22.059Z,71.30
2018-03-04T09:27:50.232Z,71.10
2018-03-04T09:30:18.306Z,71.10
2018-03-04T09:32:46.489Z,71.20
2018-03-04T09:35:14.768Z,71.20
2018-03-04T09:37:42.826Z,71.30
2018-03-04T09:40:10.999Z,71.10
2018-03-04T09:42:39.182Z,71.30
2018-03-04T09:45:07.356Z,71.10
2018-03-04T09:47:36.233Z,70.80
2018-03-04T09:50:13.787Z,70.90
2018-03-04T09:52:53.979Z,70.90
2018-03-04T09:55:21.957Z,70.90
2018-03-04T09:57:51.776Z,71.10
2018-03-04T10:00:19.897Z,71.10
2018-03-04T10:02:48.008Z,70.90
2018-03-04T10:05:16.185Z,71.00
2018-03-04T10:07:46.265Z,70.90
2018-03-04T10:10:14.583Z,70.80
2018-03-04T10:12:43.423Z,71.40
2018-03-04T10:15:11.543Z,70.70
2018-03-04T10:17:39.509Z,70.80
2018-03-04T10:20:07.692Z,70.80
2018-03-04T10:22:37.292Z,70.60
2018-03-04T10:25:05.311Z,70.60
2018-03-04T10:27:33.416Z,70.60
2018-03-04T10:30:01.503Z,70.30
2018-03-04T10:32:29.571Z,70.10
2018-03-04T10:34:57.704Z,70.10
2018-03-04T10:37:25.712Z,70.30
2018-03-04T10:39:53.691Z,70.30
2018-03-04T10:42:22.674Z,70.20
2018-03-04T10:44:50.750Z,70.00
2018-03-04T10:47:18.828Z,70.10
2018-03-04T10:49:47.005Z,70.20
2018-03-04T10:52:15.167Z,70.20
2018-03-04T10:54:43.450Z,70.30
2018-03-04T10:57:12.023Z,70.00
2018-03-04T10:59:40.207Z,70.20
2018-03-04T11:02:13.821Z,70.30
2018-03-04T11:04:42.688Z,70.30
2018-03-04T11:07:11.216Z,70.40
2018-03-04T11:09:39.402Z,70.30
2018-03-04T11:12:10.285Z,70.00
2018-03-04T11:14:38.464Z,69.90
2018-03-04T11:17:07.406Z,70.00
2018-03-04T11:19:35.517Z,70.50
2018-03-04T11:22:03.801Z,69.80
2018-03-04T11:24:32.591Z,69.60
2018-03-04T11:27:00.865Z,69.60
2018-03-04T11:29:29.340Z,69.60
2018-03-04T11:31:57.520Z,69.70
2018-03-04T11:34:25.755Z,69.70
2018-03-04T11:36:53.955Z,69.90
2018-03-04T11:39:22.087Z,69.80
2018-03-04T11:41:50.099Z,69.60
2018-03-04T11:44:18.180Z,69.50
2018-03-04T11:46:46.348Z,69.50
2018-03-04T11:49:16.210Z,69.50
2018-03-04T11:51:53.896Z,69.40
2018-03-04T11:54:31.615Z,69.00
2018-03-04T11:56:59.828Z,69.00
2018-03-04T11:59:27.896Z,69.20
2018-03-04T12:01:55.865Z,69.20
2018-03-04T12:04:24.051Z,69.20
2018-03-04T12:06:52.224Z,69.20
2018-03-04T12:09:20.282Z,69.30
2018-03-04T12:11:48.968Z,69.20
2018-03-04T12:14:16.929Z,69.20
2018-03-04T12:16:45.122Z,69.10
2018-03-04T12:19:13.181Z,69.10
2018-03-04T12:21:41.354Z,69.10
2018-03-04T12:24:10.155Z,69.10
2018-03-04T12:26:38.320Z,69.00
2018-03-04T12:29:06.501Z,69.10
2018-03-04T12:31:34.668Z,68.90
2018-03-04T12:34:03.660Z,68.70
2018-03-04T12:36:33.266Z,69.00
2018-03-04T12:39:01.234Z,68.90
2018-03-04T12:41:29.192Z,69.20
2018-03-04T12:43:57.269Z,69.10
2018-03-04T12:46:25.450Z,69.00
2018-03-04T12:48:53.515Z,69.70
2018-03-04T12:51:22.717Z,69.00
2018-03-04T12:53:50.889Z,68.70
2018-03-04T12:56:20.504Z,68.60
2018-03-04T12:58:57.059Z,68.60
2018-03-04T13:01:34.956Z,68.70
2018-03-04T13:04:03.048Z,68.80
2018-03-04T13:06:31.209Z,68.70
2018-03-04T13:08:59.387Z,68.50
2018-03-04T13:11:27.458Z,68.30
2018-03-04T13:13:55.742Z,68.20
2018-03-04T13:16:24.212Z,68.50
2018-03-04T13:18:54.214Z,68.60
2018-03-04T13:21:22.411Z,68.60
2018-03-04T13:23:50.687Z,69.10
2018-03-04T13:26:18.963Z,69.20
2018-03-04T13:28:47.263Z,68.90
2018-03-04T13:31:16.245Z,69.00
2018-03-04T13:33:44.926Z,68.90
2018-03-04T13:36:13.115Z,68.90
2018-03-04T13:38:42.186Z,68.50
2018-03-04T13:41:10.815Z,68.50
2018-03-04T13:43:39.449Z,68.40
2018-03-04T13:46:08.733Z,68.20
2018-03-04T13:48:38.276Z,68.10
2018-03-04T13:51:07.149Z,68.10
2018-03-04T13:53:35.223Z,68.10
2018-03-04T13:56:03.381Z,68.10
2018-03-04T13:58:31.558Z,68.30
2018-03-04T14:00:59.728Z,68.30
2018-03-04T14:03:27.705Z,68.30
2018-03-04T14:05:55.884Z,68.20
2018-03-04T14:08:23.943Z,68.10
2018-03-04T14:10:52.024Z,68.10
2018-03-04T14:13:20.199Z,68.10
2018-03-04T14:15:48.257Z,68.10
2018-03-04T14:18:16.441Z,68.10
2018-03-04T14:20:44.616Z,68.00
2018-03-04T14:23:12.780Z,67.90
2018-03-04T14:25:40.849Z,68.00
2018-03-04T14:28:09.016Z,68.00
2018-03-04T14:30:37.195Z,68.00
2018-03-04T14:33:05.165Z,68.00
2018-03-04T14:35:33.453Z,68.10
2018-03-04T14:38:01.618Z,68.10
2018-03-04T14:40:30.299Z,68.20
2018-03-04T14:42:58.486Z,68.20
2018-03-04T14:45:26.543Z,68.10
2018-03-04T14:47:54.614Z,68.10
2018-03-04T14:50:22.787Z,68.10
2018-03-04T14:52:50.924Z,68.00
2018-03-04T14:55:19.045Z,68.00
2018-03-04T14:57:47.717Z,68.10
2018-03-04T15:00:15.913Z,68.10
2018-03-04T15:02:44.894Z,68.20
2018-03-04T15:05:13.070Z,68.20
2018-03-04T15:07:41.855Z,68.20
2018-03-04T15:10:10.747Z,68.20
2018-03-04T15:12:38.910Z,68.00
2018-03-04T15:15:07.086Z,68.10
2018-03-04T15:17:37.672Z,68.10
2018-03-04T15:20:05.783Z,68.00
2018-03-04T15:22:33.752Z,68.00
2018-03-04T15:25:01.827Z,68.10
2018-03-04T15:27:30.010Z,68.30
2018-03-04T15:29:59.002Z,68.30
2018-03-04T15:32:27.163Z,68.40
2018-03-04T15:34:55.236Z,68.30
2018-03-04T15:37:23.419Z,68.30
2018-03-04T15:39:51.890Z,68.40
2018-03-04T15:42:19.958Z,68.40
2018-03-04T15:44:47.927Z,68.40
2018-03-04T15:47:16.113Z,68.40
2018-03-04T15:49:44.274Z,68.40
2018-03-04T15:52:12.348Z,68.50
2018-03-04T15:54:40.526Z,68.50
2018-03-04T15:57:08.590Z,68.60
2018-03-04T15:59:39.221Z,68.50
2018-03-04T16:02:07.418Z,68.50
2018-03-04T16:04:36.398Z,68.60
2018-03-04T16:07:04.780Z,68.50
2018-03-04T16:09:33.769Z,68.60
2018-03-04T16:12:02.649Z,68.60
2018-03-04T16:14:30.821Z,68.60
2018-03-04T16:16:59.004Z,68.50
2018-03-04T16:19:27.172Z,68.60
2018-03-04T16:21:55.353Z,68.70
2018-03-04T16:24:23.528Z,68.70
2018-03-04T16:26:51.586Z,68.70
2018-03-04T16:29:19.874Z,68.80
2018-03-04T16:31:48.757Z,68.70
2018-03-04T16:34:16.823Z,68.70
2018-03-04T16:36:45.024Z,68.70
2018-03-04T16:39:14.502Z,68.90
2018-03-04T16:41:42.572Z,68.90
2018-03-04T16:44:11.270Z,68.80
2018-03-04T16:46:39.443Z,68.90
2018-03-04T16:49:07.504Z,69.00
2018-03-04T16:51:35.573Z,68.90
2018-03-04T16:54:03.746Z,69.10
2018-03-04T16:56:31.680Z,69.20
2018-03-04T16:59:00.011Z,69.20
2018-03-04T17:01:28.062Z,69.30
2018-03-04T17:03:56.248Z,69.30
2018-03-04T17:06:24.419Z,69.30
2018-03-04T17:08:52.582Z,69.40
2018-03-04T17:11:20.667Z,69.40
2018-03-04T17:13:48.829Z,69.40
2018-03-04T17:16:16.906Z,69.40
2018-03-04T17:18:45.071Z,69.50
2018-03-04T17:21:14.178Z,69.60
2018-03-04T17:23:42.309Z,69.50
2018-03-04T17:26:11.027Z,69.60
2018-03-04T17:28:39.198Z,69.60
2018-03-04T17:31:07.483Z,69.60
2018-03-04T17:33:35.545Z,69.70
2018-03-04T17:36:03.838Z,69.80
2018-03-04T17:38:32.008Z,69.80
2018-03-04T17:41:00.171Z,69.80
2018-03-04T17:43:28.455Z,69.90
2018-03-04T17:45:56.733Z,69.90
2018-03-04T17:48:25.518Z,69.90
2018-03-04T17:50:53.691Z,70.00
2018-03-04T17:53:21.752Z,69.90
2018-03-04T17:55:49.825Z,69.90
2018-03-04T17:58:18.110Z,70.10
2018-03-04T18:00:48.943Z,70.00
2018-03-04T18:03:17.007Z,70.00
2018-03-04T18:05:45.333Z,70.00
2018-03-04T18:08:14.693Z,70.10
2018-03-04T18:10:42.847Z,70.10
2018-03-04T18:13:11.145Z,70.20
2018-03-04T18:15:40.246Z,70.10
2018-03-04T18:18:11.061Z,70.20
2018-03-04T18:20:39.365Z,70.20
2018-03-04T18:23:08.465Z,70.20
2018-03-04T18:25:37.411Z,70.30
2018-03-04T18:28:06.972Z,70.30
2018-03-04T18:30:35.928Z,70.30
2018-03-04T18:33:04.715Z,70.30
2018-03-04T18:35:32.898Z,70.30
2018-03-04T18:38:01.189Z,70.40
2018-03-04T18:40:30.177Z,70.50
2018-03-04T18:42:58.327Z,70.50
2018-03-04T18:45:26.500Z,71.20
2018-03-04T18:47:54.581Z,70.50
2018-03-04T18:50:26.130Z,70.60
2018-03-04T18:52:54.637Z,70.60
2018-03-04T18:55:23.721Z,70.50
2018-03-04T18:57:52.506Z,70.50
2018-03-04T19:00:20.673Z,70.60
2018-03-04T19:02:49.669Z,70.50
2018-03-04T19:05:19.130Z,70.50
2018-03-04T19:07:47.555Z,70.60
2018-03-04T19:10:15.937Z,70.50
2018-03-04T19:12:44.088Z,71.60
2018-03-04T19:15:12.384Z,70.80
2018-03-04T19:17:41.483Z,70.80
2018-03-04T19:20:10.346Z,70.70
2018-03-04T19:22:38.646Z,70.80
2018-03-04T19:25:07.633Z,70.70
2018-03-04T19:27:37.225Z,70.80
2018-03-04T19:30:06.558Z,70.80
2018-03-04T19:32:35.415Z,70.80
2018-03-04T19:35:03.493Z,70.80
2018-03-04T19:37:31.499Z,70.80
2018-03-04T19:40:00.570Z,70.90
2018-03-04T19:42:29.185Z,70.90
2018-03-04T19:44:58.251Z,71.00
2018-03-04T19:47:27.243Z,71.00
2018-03-04T19:49:55.398Z,71.00
2018-03-04T19:52:23.479Z,71.10
2018-03-04T19:54:51.654Z,71.10
2018-03-04T19:57:20.650Z,71.10
2018-03-04T19:59:49.530Z,71.00
2018-03-04T20:02:18.047Z,71.00
2018-03-04T20:04:47.015Z,71.10
2018-03-04T20:07:15.888Z,71.10
2018-03-04T20:09:44.064Z,71.10
2018-03-04T20:12:12.241Z,71.10
2018-03-04T20:14:40.407Z,71.10
2018-03-04T20:17:08.481Z,71.30
2018-03-04T20:19:37.490Z,71.20
2018-03-04T20:22:05.651Z,71.20
2018-03-04T20:24:34.539Z,71.20
2018-03-04T20:27:02.610Z,71.20
2018-03-04T20:29:30.677Z,71.10
2018-03-04T20:31:59.566Z,71.80
2018-03-04T20:34:28.557Z,71.10
2018-03-04T20:36:56.785Z,71.00
2018-03-04T20:39:25.011Z,71.00
2018-03-04T20:41:53.181Z,71.10
2018-03-04T20:44:21.148Z,71.20
2018-03-04T20:46:49.323Z,71.20
2018-03-04T20:49:17.634Z,71.40
2018-03-04T20:51:47.326Z,71.40
2018-03-04T20:54:15.480Z,71.40
2018-03-04T20:56:44.690Z,71.40
2018-03-04T20:59:12.968Z,71.40
2018-03-04T21:01:41.128Z,71.30
2018-03-04T21:04:09.204Z,71.50
2018-03-04T21:06:37.486Z,71.40
2018-03-04T21:09:05.700Z,71.50
2018-03-04T21:11:33.719Z,71.50
2018-03-04T21:14:01.904Z,71.60
2018-03-04T21:16:30.270Z,71.60
2018-03-04T21:18:58.456Z,71.60
2018-03-04T21:21:26.623Z,71.60
2018-03-04T21:23:54.794Z,71.40
2018-03-04T21:26:29.119Z,71.60
2018-03-04T21:28:57.281Z,71.50
2018-03-04T21:31:25.365Z,71.60
2018-03-04T21:33:53.538Z,71.70
2018-03-04T21:36:21.713Z,71.70
2018-03-04T21:38:50.697Z,71.80
2018-03-04T21:41:18.866Z,71.80
2018-03-04T21:43:46.937Z,71.60
2018-03-04T21:46:15.111Z,71.50
2018-03-04T21:48:43.397Z,71.60
2018-03-04T21:51:11.457Z,71.60
2018-03-04T21:53:39.664Z,71.60
2018-03-04T21:56:08.627Z,71.70
2018-03-04T21:58:36.806Z,71.70
2018-03-04T22:01:04.972Z,71.90
2018-03-04T22:03:33.039Z,71.80
2018-03-04T22:06:01.232Z,71.80
2018-03-04T22:08:29.185Z,71.90
2018-03-04T22:10:57.981Z,71.90
2018-03-04T22:13:26.046Z,71.90
2018-03-04T22:15:54.330Z,71.90
2018-03-04T22:18:22.385Z,72.00
2018-03-04T22:20:50.574Z,72.00
2018-03-04T22:23:18.745Z,72.10
2018-03-04T22:25:46.911Z,72.20
2018-03-04T22:28:14.980Z,72.20
2018-03-04T22:30:43.055Z,72.20
2018-03-04T22:33:11.235Z,72.30
2018-03-04T22:35:39.295Z,72.30
2018-03-04T22:38:07.473Z,72.30
2018-03-04T22:40:35.539Z,72.30
2018-03-04T22:43:03.726Z,72.40
2018-03-04T22:45:31.890Z,72.40
2018-03-04T22:48:00.783Z,71.90
2018-03-04T22:50:28.951Z,72.50
2018-03-04T22:52:57.023Z,72.40
2018-03-04T22:55:25.915Z,72.80
2018-03-04T22:57:54.085Z,72.40
2018-03-04T23:00:22.076Z,72.60
2018-03-04T23:02:50.128Z,72.60
2018-03-04T23:05:18.093Z,72.60
2018-03-04T23:07:46.271Z,72.60
2018-03-04T23:10:14.362Z,72.60
2018-03-04T23:12:43.239Z,72.70
2018-03-04T23:15:11.196Z,72.60
2018-03-04T23:17:39.267Z,72.60
2018-03-04T23:20:07.443Z,72.70
2018-03-04T23:22:35.626Z,72.70
2018-03-04T23:25:03.787Z,72.70
2018-03-04T23:27:31.699Z,72.70
2018-03-04T23:30:00.658Z,72.70
2018-03-04T23:32:28.833Z,72.70
2018-03-04T23:34:56.892Z,72.80
2018-03-04T23:37:24.868Z,72.80
2018-03-04T23:39:52.929Z,72.80
2018-03-04T23:42:21.006Z,72.70
2018-03-04T23:44:49.180Z,72.60
2018-03-04T23:47:17.249Z,72.60
2018-03-04T23:49:45.328Z,72.70
2018-03-04T23:52:13.288Z,72.60
2018-03-04T23:54:41.463Z,72.70
2018-03-04T23:57:10.258Z,72.70
2018-03-04T23:59:38.319Z,72.70
